Lyman, NE (69352)

2:07 AM MDT on July 31, 2016 (GMT -0600)
Torrington Municipal | | Change Station

Elev 4206 ft 42.06 °N, 104.15 °W | Updated 14 minutes ago

Clear
Clear
70 °F
Feels Like 70 °F
N
5
Wind Variable Wind from ESE

Today
High -- | Low -- °F
--% Chance of Precip.
Yesterday
High -- | Low -- °F
Precip. -- in
Pressure 29.69 in
Visibility 10.0 miles
Clouds Clear
Dew Point 62 °F
Humidity 76%
Rainfall 0.00 in
Snow Depth Not available.
5:49 AM 8:14 PM
Waning Crescent, 8% visible
METAR KTOR 310753Z AUTO 11004KT 10SM CLR 21/17 A2987 RMK AO2 SLP054 T02110167 TSNO
Pressure 29.69 in
Visibility 10.0 miles
Clouds Clear
Dew Point 62 °F
Humidity 76%
Rainfall 0.00 in
Snow Depth Not available.
5:49 AM 8:14 PM
Waning Crescent, 8% visible
METAR KTOR 310753Z AUTO 11004KT 10SM CLR 21/17 A2987 RMK AO2 SLP054 T02110167 TSNO

10-Day Weather Forecast

Almanac

Astronomy

Jul. 31, 2016 Rise Set
Actual Time
Civil Twilight
Nautical Twilight
Astronomical Twilight
Moon
Length of Visible Light
Length of Day
Tomorrow will be .
, % of the Moon is Illuminated

Today's Extremes

State Highs State Lows

Community

WunderPhotos

Upload Photos

1,928,768 photos uploaded!

WunderBlog® & News

Nearby

Air Quality

  Air Quality AQ Index Pollutant
Not available.

Snow Depth

Station Depth Elevation

Earthquake Activity

City Distance Mag. Time & Date
Minimum magnitude displayed is 2.5.

Coastal Water Temperatures

Place Temperature

Stations

Nearby Weather Stations

Station Location Temp. Windchill Dew Point Humidity Wind Precip. Elev Updated Type
                   

Watches & Warnings

There are currently no watches in effect.